Time;durP1;ratioP1;P1;durP2;ratioP2;P2;SDS_P1;SDS_P2;PMS_P1;PMS_P2;Temp;Humidity;BMP_temperature;BMP_pressure;BME280_temperature;BME280_humidity;BME280_pressure;Samples;Min_cycle;Max_cycle;Signal;HPM_P1;HPM_P2
2022/11/07 00:02:08;;;;;;;11.40;9.00;;;8.50;99.90;;;;;;5031787;28;20366;-78
2022/11/07 00:04:52;;;;;;;13.07;10.63;;;8.50;99.90;;;;;;5055581;28;20454;-79
2022/11/07 00:07:37;;;;;;;9.87;8.30;;;8.50;99.90;;;;;;5024641;28;20405;-80
2022/11/07 00:10:21;;;;;;;15.20;9.67;;;8.50;99.90;;;;;;5038828;28;20412;-80
2022/11/07 00:13:05;;;;;;;13.17;10.13;;;8.50;99.90;;;;;;5038463;28;20379;-81
2022/11/07 00:15:49;;;;;;;9.67;8.67;;;8.50;99.90;;;;;;5039076;28;20373;-80
2022/11/07 00:18:33;;;;;;;12.57;7.50;;;8.50;99.90;;;;;;5039635;28;20362;-81
2022/11/07 00:21:17;;;;;;;12.33;9.47;;;8.50;99.90;;;;;;5040372;28;20398;-80
2022/11/07 00:24:03;;;;;;;15.60;10.70;;;8.70;99.90;;;;;;5041530;28;20412;-80
2022/11/07 00:26:48;;;;;;;14.50;10.20;;;8.70;99.90;;;;;;5056005;28;20375;-77
2022/11/07 00:29:32;;;;;;;14.97;9.60;;;8.70;99.90;;;;;;5056990;28;20380;-77
2022/11/07 00:32:16;;;;;;;19.60;9.77;;;8.70;99.90;;;;;;5040588;28;20361;-79
2022/11/07 00:35:00;;;;;;;13.87;8.80;;;8.70;99.90;;;;;;5042859;28;20456;-79
2022/11/07 00:37:44;;;;;;;12.00;9.77;;;8.60;99.90;;;;;;5041623;28;20448;-81
2022/11/07 00:40:31;;;;;;;13.37;9.50;;;8.70;99.90;;;;;;5041710;28;20420;-79
2022/11/07 00:43:15;;;;;;;14.13;9.07;;;8.60;99.90;;;;;;5041035;28;20390;-80
2022/11/07 00:46:02;;;;;;;11.10;8.07;;;8.70;99.90;;;;;;5041402;28;20453;-79
2022/11/07 00:48:47;;;;;;;13.40;10.33;;;8.80;99.90;;;;;;5041302;28;20361;-79
2022/11/07 00:51:31;;;;;;;12.03;9.17;;;8.70;99.90;;;;;;5040660;28;20445;-79
2022/11/07 00:54:15;;;;;;;14.57;9.00;;;8.60;99.90;;;;;;5040966;28;20399;-80
2022/11/07 00:56:59;;;;;;;10.93;7.50;;;8.70;99.90;;;;;;5041337;28;20456;-79
2022/11/07 00:59:43;;;;;;;12.20;9.17;;;8.80;99.90;;;;;;5040969;28;20395;-79
2022/11/07 01:02:28;;;;;;;13.10;9.00;;;8.90;99.90;;;;;;5041203;28;20510;-80
2022/11/07 01:05:12;;;;;;;14.87;9.67;;;8.90;99.90;;;;;;5040886;28;20449;-79
2022/11/07 01:07:56;;;;;;;12.90;8.73;;;8.90;99.90;;;;;;5041356;28;20398;-79
2022/11/07 01:10:40;;;;;;;15.73;9.00;;;8.80;99.90;;;;;;5041302;28;20380;-80
2022/11/07 01:13:24;;;;;;;13.10;9.77;;;8.70;99.90;;;;;;5040943;28;20358;-79
2022/11/07 01:16:10;;;;;;;12.93;9.53;;;8.70;99.90;;;;;;5040499;28;20461;-79
2022/11/07 01:18:54;;;;;;;13.10;9.67;;;8.70;99.90;;;;;;5040125;28;20422;-79
2022/11/07 01:21:40;;;;;;;10.53;8.20;;;8.70;99.90;;;;;;5040553;28;20391;-79
2022/11/07 01:24:24;;;;;;;13.23;9.23;;;8.70;99.90;;;;;;5040706;28;20442;-79
2022/11/07 01:27:08;;;;;;;12.80;9.03;;;8.70;99.90;;;;;;5040487;28;20406;-79
2022/11/07 01:29:53;;;;;;;14.87;10.13;;;8.90;99.90;;;;;;5041012;28;20385;-78
2022/11/07 01:32:37;;;;;;;13.10;9.37;;;8.80;99.90;;;;;;5040679;28;20399;-79
2022/11/07 01:35:21;;;;;;;12.00;8.97;;;8.80;99.90;;;;;;5039073;28;20438;-79
2022/11/07 01:38:06;;;;;;;13.47;9.53;;;8.90;99.90;;;;;;5040508;28;20365;-79
2022/11/07 01:44:21;;;;;;;10.53;7.83;;;9.00;99.90;;;;;;5039911;28;20385;-80
2022/11/07 01:47:07;;;;;;;8.43;7.27;;;9.10;99.90;;;;;;5039530;28;20422;-79
2022/11/07 01:49:52;;;;;;;9.77;8.17;;;8.90;99.90;;;;;;5040318;28;20354;-79
2022/11/07 01:52:40;;;;;;;12.63;8.70;;;8.90;99.90;;;;;;5040666;28;20480;-79
2022/11/07 01:55:30;;;;;;;14.97;9.43;;;8.90;99.90;;;;;;5040593;28;20467;-80
2022/11/07 01:58:14;;;;;;;12.33;7.70;;;8.90;99.90;;;;;;5039895;28;20442;-79
2022/11/07 02:00:59;;;;;;;8.47;7.67;;;8.90;99.90;;;;;;5025336;28;20378;-80
2022/11/07 02:03:44;;;;;;;10.57;7.50;;;9.00;99.90;;;;;;5039922;28;20375;-79
2022/11/07 02:06:48;;;;;;;12.77;9.00;;;8.90;99.90;;;;;;5039523;28;20750;-80
2022/11/07 02:09:32;;;;;;;8.87;7.10;;;9.00;99.90;;;;;;5040090;28;20406;-80
2022/11/07 02:12:17;;;;;;;8.93;7.63;;;8.90;99.90;;;;;;5039778;28;20446;-80
2022/11/07 02:15:01;;;;;;;12.63;7.10;;;8.90;99.90;;;;;;5040052;28;20902;-80
2022/11/07 02:17:46;;;;;;;9.33;7.40;;;9.00;99.90;;;;;;5040241;28;20854;-79
2022/11/07 02:20:30;;;;;;;9.57;7.60;;;9.10;99.90;;;;;;5040432;28;20982;-80
2022/11/07 02:23:26;;;;;;;12.00;8.10;;;9.00;99.90;;;;;;5040666;28;20475;-80
2022/11/07 02:26:11;;;;;;;9.33;6.87;;;9.00;99.90;;;;;;5040215;28;20424;-80
2022/11/07 02:28:57;;;;;;;7.33;6.67;;;8.90;99.90;;;;;;5050071;28;20384;-78
2022/11/07 02:31:41;;;;;;;10.90;7.10;;;8.90;99.90;;;;;;5051935;28;20394;-77
2022/11/07 02:34:25;;;;;;;8.43;6.50;;;8.90;99.90;;;;;;5051064;28;20373;-78
2022/11/07 02:37:21;;;;;;;8.83;7.43;;;8.90;99.90;;;;;;5039390;28;20416;-80
2022/11/07 02:40:08;;;;;;;10.03;6.60;;;9.00;99.90;;;;;;5021611;28;20735;-81
2022/11/07 02:42:52;;;;;;;12.63;6.93;;;9.10;99.90;;;;;;5036158;28;20391;-80
2022/11/07 02:45:39;;;;;;;7.07;6.00;;;9.20;99.90;;;;;;5036337;28;20500;-80
2022/11/07 02:48:38;;;;;;;8.30;5.97;;;9.20;99.90;;;;;;5036354;28;20377;-80
2022/11/07 02:51:23;;;;;;;8.10;6.40;;;9.20;99.90;;;;;;5035858;28;20561;-81
2022/11/07 02:54:07;;;;;;;5.90;5.07;;;9.20;99.90;;;;;;5021050;28;20432;-80
2022/11/07 02:56:51;;;;;;;7.83;6.00;;;9.20;99.90;;;;;;5020718;28;20397;-80
2022/11/07 02:59:35;;;;;;;9.20;5.77;;;9.40;99.90;;;;;;5036098;28;20387;-80
2022/11/07 03:02:20;;;;;;;11.27;5.97;;;9.40;99.90;;;;;;5035916;28;20407;-80
2022/11/07 03:05:04;;;;;;;10.33;6.87;;;9.40;99.90;;;;;;5035808;28;20417;-80
2022/11/07 03:07:49;;;;;;;8.67;5.30;;;9.40;99.90;;;;;;5036375;28;20442;-80
2022/11/07 03:10:33;;;;;;;7.63;5.27;;;9.50;99.90;;;;;;5036089;28;20357;-81
2022/11/07 03:13:17;;;;;;;9.93;7.07;;;9.50;99.90;;;;;;5035698;28;20434;-81
2022/11/07 03:16:07;;;;;;;8.70;5.90;;;9.50;99.90;;;;;;5036380;28;20406;-80
2022/11/07 03:18:51;;;;;;;8.60;5.40;;;9.50;99.90;;;;;;5035379;28;20433;-82
2022/11/07 03:21:35;;;;;;;5.50;4.43;;;9.40;99.90;;;;;;5035244;28;20682;-81
2022/11/07 03:24:19;;;;;;;6.90;5.10;;;9.40;99.90;;;;;;5035574;28;20417;-79
2022/11/07 03:27:03;;;;;;;6.40;3.87;;;9.30;99.90;;;;;;5035349;28;20501;-80
2022/11/07 03:29:47;;;;;;;5.60;4.83;;;9.30;99.90;;;;;;5035173;28;20401;-80
2022/11/07 03:32:33;;;;;;;7.07;5.73;;;9.30;99.90;;;;;;5035349;28;20450;-82
2022/11/07 03:35:18;;;;;;;5.83;5.23;;;9.40;99.90;;;;;;5035385;28;20454;-80
2022/11/07 03:38:02;;;;;;;8.20;5.57;;;9.30;99.90;;;;;;5035156;28;20388;-81
2022/11/07 03:40:46;;;;;;;6.77;4.40;;;9.30;99.90;;;;;;5035303;28;20389;-80
2022/11/07 03:43:30;;;;;;;5.60;4.37;;;9.30;99.90;;;;;;5035603;28;20895;-82
2022/11/07 03:46:15;;;;;;;5.70;5.00;;;9.30;99.90;;;;;;5034844;28;20446;-80
2022/11/07 03:48:59;;;;;;;6.70;4.10;;;9.40;99.90;;;;;;5035925;28;20375;-81
2022/11/07 03:51:44;;;;;;;7.27;5.27;;;9.30;99.90;;;;;;5034897;28;20847;-81
2022/11/07 03:54:28;;;;;;;14.00;5.43;;;9.40;99.90;;;;;;5035294;28;20400;-80
2022/11/07 03:57:12;;;;;;;5.60;4.97;;;9.40;99.90;;;;;;5035112;28;20806;-81
2022/11/07 03:59:56;;;;;;;9.70;4.90;;;9.20;99.90;;;;;;5038163;28;20426;-79
2022/11/07 04:02:40;;;;;;;5.97;5.30;;;9.20;99.90;;;;;;5023950;28;20369;-80
2022/11/07 04:05:25;;;;;;;7.73;4.83;;;9.20;99.90;;;;;;5024118;28;20921;-79
2022/11/07 04:08:09;;;;;;;6.80;5.33;;;9.20;99.90;;;;;;5039172;28;20897;-80
2022/11/07 04:10:53;;;;;;;5.30;4.30;;;9.10;99.90;;;;;;5039291;28;20354;-80
2022/11/07 04:19:38;;;;;;;5.97;5.40;;;9.20;99.90;;;;;;5038658;28;20395;-79
2022/11/07 04:22:24;;;;;;;4.67;4.27;;;9.10;99.90;;;;;;5038644;28;20391;-79
2022/11/07 04:25:09;;;;;;;8.93;5.53;;;9.30;99.90;;;;;;5023535;28;20499;-81
2022/11/07 04:27:52;;;;;;;5.57;5.03;;;9.30;99.90;;;;;;5038243;28;20394;-80
2022/11/07 04:30:37;;;;;;;7.87;5.90;;;9.20;99.90;;;;;;5023117;28;20401;-80
2022/11/07 04:33:21;;;;;;;7.47;5.50;;;9.10;99.90;;;;;;5038214;28;20357;-80
2022/11/07 04:36:05;;;;;;;6.60;4.80;;;9.10;99.90;;;;;;5038453;28;20451;-80
2022/11/07 04:38:50;;;;;;;4.87;4.37;;;9.20;99.90;;;;;;5038967;28;20389;-80
2022/11/07 04:41:34;;;;;;;5.43;3.90;;;9.10;99.90;;;;;;5038517;28;20370;-81
2022/11/07 04:44:18;;;;;;;5.73;4.50;;;9.10;99.90;;;;;;5038153;28;20416;-81
2022/11/07 04:47:02;;;;;;;5.17;4.67;;;9.10;99.90;;;;;;5017267;28;20570;-81
2022/11/07 04:49:46;;;;;;;4.80;4.37;;;9.20;99.90;;;;;;5008620;28;20378;-81
2022/11/07 04:52:30;;;;;;;5.20;4.03;;;9.30;99.90;;;;;;5037603;28;20428;-81
2022/11/07 04:55:23;;;;;;;4.90;4.23;;;9.30;99.90;;;;;;5049462;28;20455;-81
2022/11/07 04:58:09;;;;;;;4.57;4.13;;;9.30;99.90;;;;;;5057757;28;20422;-81
2022/11/07 05:00:53;;;;;;;5.33;4.17;;;9.20;99.90;;;;;;5052521;28;20794;-81
2022/11/07 05:03:37;;;;;;;7.83;4.00;;;9.40;99.90;;;;;;5038412;28;20760;-80
2022/11/07 05:06:22;;;;;;;4.10;3.70;;;9.40;99.90;;;;;;5022673;28;20460;-81
2022/11/07 05:09:08;;;;;;;5.43;4.40;;;9.40;99.90;;;;;;5038325;28;20389;-81
2022/11/07 05:11:53;;;;;;;8.70;4.40;;;9.40;99.90;;;;;;5037552;28;20358;-81
2022/11/07 05:14:37;;;;;;;4.00;3.70;;;9.40;99.90;;;;;;5022660;28;20887;-81
2022/11/07 05:17:21;;;;;;;4.83;4.43;;;9.40;99.90;;;;;;5037463;28;20383;-81
2022/11/07 05:20:06;;;;;;;4.40;3.50;;;9.40;99.90;;;;;;5038125;28;20370;-81
2022/11/07 05:25:51;;;;;;;4.27;3.63;;;9.40;99.90;;;;;;5037549;28;20799;-82
2022/11/07 05:28:35;;;;;;;3.30;3.00;;;9.40;99.90;;;;;;5037782;28;20383;-81
2022/11/07 05:31:19;;;;;;;9.13;4.40;;;9.30;99.90;;;;;;5022835;28;20449;-81
2022/11/07 05:34:03;;;;;;;3.77;3.40;;;9.40;99.90;;;;;;5038672;28;20378;-81
2022/11/07 05:36:47;;;;;;;3.23;2.90;;;9.30;99.90;;;;;;5038627;28;20369;-81
2022/11/07 05:39:31;;;;;;;4.13;3.50;;;9.40;99.90;;;;;;5037914;28;20869;-81
2022/11/07 05:42:15;;;;;;;4.83;3.33;;;9.40;99.90;;;;;;5038592;28;20692;-80
2022/11/07 05:44:59;;;;;;;11.93;4.03;;;9.30;99.90;;;;;;5037712;28;20528;-81
2022/11/07 05:47:44;;;;;;;4.90;3.67;;;9.40;99.90;;;;;;5038552;28;20438;-80
2022/11/07 05:50:29;;;;;;;6.80;3.77;;;9.50;99.90;;;;;;5040384;28;20928;-80
2022/11/07 05:53:13;;;;;;;3.23;3.03;;;9.50;99.90;;;;;;5039276;28;20380;-80
2022/11/07 05:55:57;;;;;;;5.43;3.60;;;9.50;99.90;;;;;;5039173;28;20402;-80
2022/11/07 05:58:41;;;;;;;3.50;3.20;;;9.50;99.90;;;;;;5044888;28;20380;-79
2022/11/07 06:01:25;;;;;;;3.57;2.90;;;9.50;99.90;;;;;;5040167;28;20399;-80
2022/11/07 06:04:09;;;;;;;5.87;3.37;;;9.50;99.90;;;;;;5030523;28;20494;-80
2022/11/07 06:06:54;;;;;;;4.37;3.60;;;9.60;99.90;;;;;;5027063;28;20473;-80
2022/11/07 06:09:38;;;;;;;3.57;2.97;;;9.60;99.90;;;;;;5029318;28;20435;-80
2022/11/07 06:12:22;;;;;;;3.77;3.47;;;9.50;99.90;;;;;;5023519;28;20486;-80
2022/11/07 06:15:06;;;;;;;3.93;3.63;;;9.50;99.90;;;;;;5031642;28;20418;-80
2022/11/07 06:17:50;;;;;;;9.33;3.80;;;9.60;99.90;;;;;;5033925;28;20964;-79
2022/11/07 06:20:34;;;;;;;3.93;3.30;;;9.50;99.90;;;;;;5033552;28;20739;-81
2022/11/07 06:23:18;;;;;;;5.20;3.33;;;9.50;99.90;;;;;;5013928;28;20443;-81
2022/11/07 06:26:03;;;;;;;5.43;3.27;;;9.50;99.90;;;;;;5016204;28;20578;-81
2022/11/07 06:28:47;;;;;;;5.70;3.60;;;9.40;99.90;;;;;;5031538;28;20413;-81
2022/11/07 06:31:31;;;;;;;3.17;2.70;;;9.60;99.90;;;;;;5029240;28;20425;-81
2022/11/07 06:34:15;;;;;;;4.27;3.40;;;9.50;99.90;;;;;;5032243;28;20503;-81
2022/11/07 06:37:00;;;;;;;6.23;3.17;;;9.60;99.90;;;;;;5025205;28;20477;-81
2022/11/07 06:39:44;;;;;;;3.97;3.40;;;9.60;99.90;;;;;;5032722;28;20816;-81
2022/11/07 06:42:28;;;;;;;6.27;4.17;;;9.60;99.90;;;;;;5019297;28;20449;-81
2022/11/07 06:45:13;;;;;;;3.63;3.17;;;9.50;99.90;;;;;;5012507;28;21004;-80
2022/11/07 06:47:57;;;;;;;2.80;2.60;;;9.50;99.90;;;;;;5033132;28;20893;-81
2022/11/07 06:50:41;;;;;;;4.03;2.63;;;9.60;99.90;;;;;;4992381;28;20504;-80
2022/11/07 06:53:26;;;;;;;3.70;3.40;;;9.60;99.90;;;;;;5032901;28;20460;-79
2022/11/07 06:56:14;;;;;;;9.93;3.10;;;9.70;99.90;;;;;;5030151;28;20475;-79
2022/11/07 06:58:58;;;;;;;6.87;4.13;;;9.70;99.90;;;;;;5026118;28;20451;-80
2022/11/07 07:01:42;;;;;;;7.73;3.50;;;9.70;99.90;;;;;;5027785;28;20783;-80
2022/11/07 07:04:27;;;;;;;2.80;2.60;;;9.70;99.90;;;;;;5023371;28;20872;-80
2022/11/07 07:07:11;;;;;;;7.10;2.57;;;9.70;99.90;;;;;;5020501;28;20426;-80
2022/11/07 07:09:55;;;;;;;3.47;2.80;;;9.80;99.90;;;;;;5031254;28;20400;-80
2022/11/07 07:12:40;;;;;;;3.63;2.83;;;9.90;99.90;;;;;;5016077;28;21000;-80
2022/11/07 07:15:25;;;;;;;3.40;3.00;;;9.80;99.90;;;;;;5028420;28;20423;-80
2022/11/07 07:18:09;;;;;;;3.30;3.00;;;9.80;99.90;;;;;;5032065;28;20653;-80
2022/11/07 07:21:02;;;;;;;2.90;2.60;;;9.90;99.90;;;;;;5024318;28;20450;-82
2022/11/07 07:23:46;;;;;;;3.30;2.90;;;9.90;99.90;;;;;;5028416;28;20439;-80
2022/11/07 07:26:31;;;;;;;7.33;2.97;;;9.90;99.90;;;;;;5011664;28;20458;-81
2022/11/07 07:29:15;;;;;;;3.40;3.20;;;9.90;99.90;;;;;;5019915;28;20512;-81
2022/11/07 07:31:59;;;;;;;7.80;2.93;;;10.00;99.90;;;;;;5024595;28;20424;-82
2022/11/07 07:34:43;;;;;;;6.40;4.03;;;10.00;99.90;;;;;;5029821;28;20404;-82
2022/11/07 07:37:28;;;;;;;5.17;3.47;;;10.10;99.90;;;;;;5000984;28;20919;-81
2022/11/07 07:40:12;;;;;;;5.90;4.13;;;10.10;99.90;;;;;;5014200;28;20481;-81
2022/11/07 07:42:56;;;;;;;4.17;2.97;;;10.10;99.90;;;;;;5018858;28;21089;-81
2022/11/07 07:45:41;;;;;;;4.07;2.87;;;10.10;99.90;;;;;;5031403;28;20501;-81
2022/11/07 07:48:25;;;;;;;3.40;3.20;;;10.20;99.90;;;;;;5014672;28;20393;-81
2022/11/07 07:51:09;;;;;;;6.43;3.80;;;10.20;99.90;;;;;;5015692;28;20435;-81
2022/11/07 07:53:54;;;;;;;6.03;3.40;;;10.30;99.90;;;;;;5018707;28;20426;-81
2022/11/07 07:56:38;;;;;;;7.13;2.60;;;10.40;99.90;;;;;;5034357;28;20420;-81
2022/11/07 07:59:22;;;;;;;3.37;2.43;;;10.40;99.90;;;;;;5033512;28;20433;-81
2022/11/07 08:02:10;;;;;;;2.30;2.10;;;10.60;99.90;;;;;;5037924;28;20775;-81
2022/11/07 08:04:55;;;;;;;6.23;2.50;;;10.70;99.90;;;;;;5031393;28;20462;-81
2022/11/07 08:07:49;;;;;;;3.40;2.70;;;10.80;99.90;;;;;;5032750;28;20458;-82
2022/11/07 08:10:34;;;;;;;2.93;2.73;;;10.90;99.90;;;;;;5030938;28;20462;-82
2022/11/07 08:13:22;;;;;;;3.70;3.17;;;11.10;99.90;;;;;;5031858;28;20463;-80
2022/11/07 08:16:06;;;;;;;5.13;2.87;;;11.20;99.90;;;;;;5030249;28;20432;-79
2022/11/07 08:18:51;;;;;;;4.50;2.67;;;11.30;99.90;;;;;;5032576;28;20433;-80
2022/11/07 08:21:35;;;;;;;5.23;2.90;;;11.40;99.90;;;;;;5028395;28;20421;-80
2022/11/07 08:24:19;;;;;;;4.17;3.47;;;11.60;99.90;;;;;;5028686;28;20437;-80
2022/11/07 08:27:03;;;;;;;7.50;3.60;;;11.80;99.90;;;;;;5027055;28;20429;-81
2022/11/07 08:29:47;;;;;;;2.60;2.20;;;11.80;99.90;;;;;;5026311;28;20523;-79
2022/11/07 08:32:32;;;;;;;4.83;3.63;;;11.80;99.90;;;;;;5032550;28;20465;-81
2022/11/07 08:35:16;;;;;;;2.50;2.30;;;11.90;99.90;;;;;;5031238;28;20426;-79
2022/11/07 08:38:00;;;;;;;11.37;3.77;;;11.90;99.90;;;;;;5027670;28;20437;-79
2022/11/07 08:40:45;;;;;;;6.00;3.07;;;11.90;99.90;;;;;;5018932;28;20490;-79
2022/11/07 08:43:29;;;;;;;4.50;2.70;;;11.80;99.90;;;;;;5030200;28;20438;-81
2022/11/07 08:46:14;;;;;;;3.40;3.10;;;11.90;99.90;;;;;;5030373;28;21279;-80
2022/11/07 08:48:58;;;;;;;4.60;2.53;;;12.20;99.90;;;;;;5027927;28;20461;-79
2022/11/07 08:51:42;;;;;;;8.67;2.83;;;12.40;99.90;;;;;;5020836;28;20477;-80
2022/11/07 08:54:27;;;;;;;4.53;2.60;;;12.30;99.90;;;;;;5017186;28;20541;-80
2022/11/07 08:57:12;;;;;;;3.30;2.40;;;12.20;99.90;;;;;;5030315;28;20582;-82
2022/11/07 08:59:56;;;;;;;4.07;2.03;;;12.20;99.90;;;;;;5010141;28;20450;-80
2022/11/07 09:02:41;;;;;;;3.10;2.40;;;12.20;99.90;;;;;;5024757;28;20558;-79
2022/11/07 09:05:25;;;;;;;4.00;2.60;;;12.30;99.90;;;;;;5024645;28;21163;-80
2022/11/07 09:08:09;;;;;;;2.60;1.97;;;12.50;99.90;;;;;;5025998;28;20458;-80
2022/11/07 09:10:53;;;;;;;3.83;2.33;;;12.50;99.90;;;;;;5028849;28;20449;-80
2022/11/07 09:13:38;;;;;;;2.70;2.40;;;12.60;99.90;;;;;;5027224;28;21971;-80
2022/11/07 09:16:25;;;;;;;2.93;1.90;;;12.70;99.90;;;;;;5001242;28;20426;-81
2022/11/07 09:19:10;;;;;;;2.83;1.80;;;12.70;99.90;;;;;;5029621;28;20433;-80
2022/11/07 09:21:56;;;;;;;4.17;1.67;;;12.90;99.90;;;;;;5022173;28;20484;-81
2022/11/07 09:24:41;;;;;;;2.40;2.17;;;12.90;99.90;;;;;;5015032;28;20560;-80
2022/11/07 09:27:25;;;;;;;7.17;2.50;;;13.00;99.90;;;;;;5026074;28;20446;-81
2022/11/07 09:30:10;;;;;;;3.73;2.40;;;13.20;99.90;;;;;;5028899;28;20429;-79
2022/11/07 09:32:55;;;;;;;1.77;1.60;;;13.30;99.90;;;;;;5025180;28;20454;-80
2022/11/07 09:35:39;;;;;;;2.30;1.50;;;13.40;99.90;;;;;;5029509;28;20522;-81
2022/11/07 09:38:23;;;;;;;2.97;2.20;;;13.40;99.90;;;;;;5029927;28;20439;-81
2022/11/07 09:41:24;;;;;;;5.40;1.90;;;13.60;99.90;;;;;;5028136;28;20434;-81
2022/11/07 09:44:36;;;;;;;3.27;2.23;;;13.40;99.90;;;;;;5033222;28;20434;-81
2022/11/07 09:47:36;;;;;;;1.60;1.50;;;13.40;99.90;;;;;;5030008;28;20445;-81
2022/11/07 09:50:41;;;;;;;2.70;1.73;;;13.40;99.90;;;;;;5029430;28;21030;-80
2022/11/07 09:53:40;;;;;;;3.67;1.83;;;13.30;99.90;;;;;;5031275;28;20561;-81
2022/11/07 09:56:28;;;;;;;2.80;1.57;;;13.40;99.90;;;;;;5031320;28;20450;-81
2022/11/07 09:59:23;;;;;;;5.73;2.73;;;13.50;99.90;;;;;;5016980;28;20462;-79
2022/11/07 10:02:21;;;;;;;4.83;3.07;;;13.50;99.90;;;;;;5027988;28;20469;-80
2022/11/07 10:05:05;;;;;;;4.70;2.00;;;13.70;99.90;;;;;;5014334;28;20542;-80
2022/11/07 10:08:02;;;;;;;2.23;2.03;;;13.60;99.90;;;;;;5032001;28;20446;-80
2022/11/07 10:10:59;;;;;;;5.37;2.03;;;13.90;99.90;;;;;;5027096;28;20525;-80
2022/11/07 10:14:00;;;;;;;3.10;1.80;;;14.20;99.90;;;;;;5013361;28;20427;-81
2022/11/07 10:17:08;;;;;;;7.60;2.40;;;14.60;99.90;;;;;;5027026;28;20902;-80
2022/11/07 10:20:12;;;;;;;1.43;1.33;;;15.50;99.90;;;;;;5030658;28;20457;-81
2022/11/07 10:23:22;;;;;;;7.63;2.87;;;15.40;99.90;;;;;;5026648;28;20489;-80
2022/11/07 10:26:09;;;;;;;2.77;1.90;;;15.40;99.90;;;;;;5029297;28;20450;-79
2022/11/07 10:29:11;;;;;;;5.27;2.00;;;14.80;99.90;;;;;;5029376;28;21429;-78
2022/11/07 10:32:27;;;;;;;3.13;1.67;;;16.10;99.90;;;;;;5019964;28;21813;-81
2022/11/07 10:35:28;;;;;;;3.17;1.90;;;17.60;99.90;;;;;;5015811;28;20430;-81
2022/11/07 10:38:21;;;;;;;7.33;2.27;;;17.50;99.90;;;;;;5030089;28;20418;-80
2022/11/07 10:41:15;;;;;;;5.00;1.67;;;16.30;99.90;;;;;;5023298;28;20478;-80
2022/11/07 10:44:06;;;;;;;3.47;1.47;;;15.30;99.90;;;;;;5015997;28;20435;-80
2022/11/07 10:46:51;;;;;;;5.70;2.70;;;15.20;99.90;;;;;;5026374;28;20566;-79
2022/11/07 10:49:38;;;;;;;4.40;2.20;;;14.70;99.90;;;;;;5024805;28;20430;-77
2022/11/07 10:52:24;;;;;;;5.60;1.80;;;14.70;99.90;;;;;;5023086;28;20465;-79
2022/11/07 10:55:16;;;;;;;2.33;1.70;;;14.50;99.90;;;;;;5005901;28;20517;-80
2022/11/07 10:58:29;;;;;;;5.30;1.90;;;14.40;99.90;;;;;;5029283;28;20461;-80
2022/11/07 11:01:23;;;;;;;2.27;1.80;;;14.50;99.90;;;;;;4983535;28;20829;-79
2022/11/07 11:04:18;;;;;;;5.23;1.90;;;14.30;99.90;;;;;;5007422;28;20483;-80
2022/11/07 11:07:11;;;;;;;5.73;2.10;;;14.10;99.90;;;;;;5006051;28;20444;-80
2022/11/07 11:09:57;;;;;;;5.00;1.70;;;14.00;99.90;;;;;;4992496;28;20523;-80
2022/11/07 11:12:45;;;;;;;3.00;1.43;;;14.00;99.90;;;;;;4998642;28;20451;-79
2022/11/07 11:15:30;;;;;;;3.57;1.87;;;14.00;99.90;;;;;;5004350;28;20420;-80
2022/11/07 11:18:17;;;;;;;1.70;1.57;;;14.10;99.90;;;;;;5007210;28;20486;-81
2022/11/07 11:21:07;;;;;;;6.13;3.40;;;14.20;99.90;;;;;;5004489;28;20535;-81
2022/11/07 11:24:16;;;;;;;4.27;2.03;;;14.20;99.90;;;;;;4973338;28;21157;-81
2022/11/07 11:27:09;;;;;;;10.23;3.00;;;14.40;99.90;;;;;;4975767;28;20480;-81
2022/11/07 11:30:19;;;;;;;4.20;1.90;;;14.70;99.90;;;;;;4983874;28;20488;-80
2022/11/07 11:33:30;;;;;;;3.37;2.07;;;14.70;99.90;;;;;;4930508;29;20472;-81
2022/11/07 11:36:40;;;;;;;3.30;1.97;;;15.40;99.90;;;;;;4875403;29;20449;-81
2022/11/07 11:39:36;;;;;;;10.07;3.57;;;16.00;99.90;;;;;;4880177;29;20529;-81
2022/11/07 11:42:50;;;;;;;3.67;1.30;;;15.80;99.90;;;;;;4871027;29;20502;-83
2022/11/07 11:45:57;;;;;;;3.93;1.27;;;16.00;99.90;;;;;;4862398;29;20497;-78
2022/11/07 11:48:47;;;;;;;6.00;1.87;;;15.60;99.90;;;;;;4876571;29;20641;-81
2022/11/07 11:51:43;;;;;;;1.63;1.17;;;15.70;99.90;;;;;;4885058;29;20547;-79
2022/11/07 11:54:27;;;;;;;1.73;1.53;;;15.90;99.90;;;;;;4887072;29;20438;-79
2022/11/07 11:57:34;;;;;;;6.90;2.00;;;15.80;99.90;;;;;;4892193;29;20468;-80
2022/11/07 12:00:21;;;;;;;1.73;1.63;;;15.60;99.90;;;;;;4872044;29;20453;-79
2022/11/07 12:03:28;;;;;;;4.23;2.03;;;15.40;99.90;;;;;;4877465;29;20559;-80
2022/11/07 12:06:18;;;;;;;7.23;1.93;;;15.20;99.90;;;;;;4890627;29;20532;-78
2022/11/07 12:09:24;;;;;;;3.07;2.80;;;15.20;99.90;;;;;;4892131;29;21203;-78
2022/11/07 12:12:27;;;;;;;4.20;1.77;;;15.20;99.90;;;;;;4902889;29;20444;-81
2022/11/07 12:15:48;;;;;;;4.37;3.20;;;15.20;99.90;;;;;;4897922;29;20992;-80
2022/11/07 12:18:45;;;;;;;2.27;1.97;;;15.30;99.90;;;;;;4911305;29;20448;-81
2022/11/07 12:21:32;;;;;;;7.63;1.83;;;15.20;99.90;;;;;;4895138;29;20979;-80
2022/11/07 12:24:47;;;;;;;2.10;1.53;;;15.00;99.90;;;;;;4906657;29;20462;-81
2022/11/07 12:27:54;;;;;;;2.30;2.10;;;14.80;99.90;;;;;;4965218;28;20436;-80
2022/11/07 12:31:08;;;;;;;3.93;2.03;;;14.90;99.90;;;;;;4963603;28;20485;-81
2022/11/07 12:34:19;;;;;;;3.00;1.73;;;14.80;99.90;;;;;;5004679;28;20451;-79
2022/11/07 12:37:34;;;;;;;6.43;2.20;;;14.60;99.90;;;;;;4976262;28;20777;-80
2022/11/07 12:40:37;;;;;;;5.40;2.27;;;14.60;99.90;;;;;;5005301;28;20524;-81
2022/11/07 12:43:43;;;;;;;4.37;1.60;;;14.50;99.90;;;;;;5005139;28;20455;-81
2022/11/07 12:46:52;;;;;;;2.20;1.63;;;14.30;99.90;;;;;;5007322;28;20487;-80
2022/11/07 12:50:03;;;;;;;3.23;2.30;;;14.30;99.90;;;;;;5009853;28;20405;-80
2022/11/07 12:53:08;;;;;;;1.73;1.47;;;14.60;99.90;;;;;;5034268;28;20431;-81
2022/11/07 12:56:11;;;;;;;7.20;1.97;;;15.40;99.90;;;;;;5005921;28;20836;-80
2022/11/07 12:59:02;;;;;;;5.40;2.20;;;15.80;99.90;;;;;;5021479;28;20434;-80
2022/11/07 13:02:16;;;;;;;3.30;2.20;;;16.60;99.90;;;;;;4985716;28;20468;-79
2022/11/07 13:05:37;;;;;;;7.47;1.53;;;17.60;99.90;;;;;;4951172;28;20505;-81
2022/11/07 13:08:54;;;;;;;6.83;1.67;;;18.20;99.90;;;;;;4970144;28;20432;-80
2022/11/07 13:12:14;;;;;;;1.40;1.30;;;19.00;99.90;;;;;;4925858;29;20446;-81
2022/11/07 13:15:01;;;;;;;3.30;1.57;;;19.00;99.90;;;;;;4924744;29;20514;-79
2022/11/07 13:17:46;;;;;;;5.07;1.80;;;18.60;99.90;;;;;;4935100;29;20437;-81
2022/11/07 13:20:30;;;;;;;2.40;1.40;;;18.50;99.90;;;;;;4929437;29;20593;-81
2022/11/07 13:23:16;;;;;;;2.37;1.97;;;18.10;99.90;;;;;;4933303;29;20527;-81
2022/11/07 13:26:03;;;;;;;2.60;1.63;;;17.50;99.90;;;;;;4935574;29;20926;-79
2022/11/07 13:29:20;;;;;;;7.57;2.03;;;16.60;99.90;;;;;;4923367;29;20857;-79
2022/11/07 13:32:09;;;;;;;1.97;1.50;;;16.50;99.90;;;;;;4910932;29;20447;-80
2022/11/07 13:34:56;;;;;;;3.97;2.10;;;16.20;99.90;;;;;;4901520;29;20553;-79
2022/11/07 13:37:46;;;;;;;3.73;1.87;;;15.80;99.90;;;;;;4902617;29;20440;-80
2022/11/07 13:40:37;;;;;;;2.10;1.60;;;15.60;99.90;;;;;;4914057;29;20489;-78
2022/11/07 13:43:26;;;;;;;3.87;1.90;;;15.20;99.90;;;;;;4975811;28;20496;-80
2022/11/07 13:46:37;;;;;;;2.23;1.40;;;15.20;99.90;;;;;;4968380;28;20506;-79
2022/11/07 13:49:42;;;;;;;4.10;2.10;;;14.90;99.90;;;;;;4969067;28;20431;-81
2022/11/07 13:52:36;;;;;;;3.50;1.97;;;14.90;99.90;;;;;;4956261;28;20560;-80
2022/11/07 13:55:24;;;;;;;5.17;2.00;;;15.40;99.90;;;;;;4970632;28;20501;-81
2022/11/07 13:58:13;;;;;;;3.37;1.37;;;15.40;99.90;;;;;;4967418;28;20544;-80
2022/11/07 14:01:09;;;;;;;2.53;1.80;;;15.10;99.90;;;;;;4966708;28;20836;-80
2022/11/07 14:03:53;;;;;;;3.13;2.00;;;14.90;99.90;;;;;;5027765;28;20442;-81
2022/11/07 14:06:37;;;;;;;3.40;2.23;;;15.00;99.90;;;;;;5026677;28;20462;-81
2022/11/07 14:09:22;;;;;;;2.83;1.77;;;15.00;99.90;;;;;;5028092;28;20655;-81
2022/11/07 14:12:06;;;;;;;6.57;2.83;;;14.60;99.90;;;;;;5014049;28;20432;-81
2022/11/07 14:14:54;;;;;;;2.77;2.57;;;14.50;99.90;;;;;;5020539;28;20977;-80
2022/11/07 14:17:38;;;;;;;1.70;1.60;;;14.70;99.90;;;;;;5029518;28;20894;-78
2022/11/07 14:20:23;;;;;;;1.73;1.30;;;14.40;99.90;;;;;;5031094;28;20426;-79
2022/11/07 14:23:12;;;;;;;3.00;1.97;;;14.20;99.90;;;;;;5014598;28;20421;-79
2022/11/07 14:26:02;;;;;;;4.20;1.87;;;14.20;99.90;;;;;;5009856;28;20595;-79
2022/11/07 14:28:47;;;;;;;2.60;2.00;;;14.20;99.90;;;;;;5038855;28;20507;-80
2022/11/07 14:31:35;;;;;;;3.50;1.67;;;14.30;99.90;;;;;;5017877;28;20549;-81
2022/11/07 14:34:21;;;;;;;2.57;1.73;;;14.10;99.90;;;;;;5005048;28;20477;-81
2022/11/07 14:37:06;;;;;;;2.47;1.80;;;14.10;99.90;;;;;;5031737;28;20465;-81
2022/11/07 14:39:51;;;;;;;3.50;1.90;;;14.00;99.90;;;;;;5022181;28;20462;-80
2022/11/07 14:42:36;;;;;;;2.00;1.63;;;14.10;99.90;;;;;;5026290;28;20422;-80
2022/11/07 14:45:22;;;;;;;2.43;2.23;;;14.20;99.90;;;;;;5027818;28;20494;-80
2022/11/07 14:48:11;;;;;;;3.03;2.63;;;14.10;99.90;;;;;;5029072;28;20496;-81
2022/11/07 14:50:57;;;;;;;7.03;2.33;;;14.10;99.90;;;;;;5032780;28;20536;-79
2022/11/07 14:53:52;;;;;;;7.63;2.60;;;14.10;99.90;;;;;;5030792;28;20469;-78
2022/11/07 14:56:41;;;;;;;2.80;2.10;;;14.00;99.90;;;;;;5031671;28;20453;-82